Time;durP1;ratioP1;P1;durP2;ratioP2;P2;SDS_P1;SDS_P2;PMS_P1;PMS_P2;Temp;Humidity;BMP_temperature;BMP_pressure;BME280_temperature;BME280_humidity;BME280_pressure;Samples;Min_cycle;Max_cycle;Signal;HPM_P1;HPM_P2
2023/04/18 00:00:05;;;;;;;;;61.25;46.50;;;;;12.08;64.60;101575.81;5074815;28;45685;-77
2023/04/18 00:02:32;;;;;;;;;64.75;51.25;;;;;12.06;64.58;101575.06;5075233;28;45929;-80
2023/04/18 00:04:57;;;;;;;;;64.75;51.00;;;;;12.06;64.41;101570.66;5075748;28;45949;-80
2023/04/18 00:07:23;;;;;;;;;67.75;53.00;;;;;12.05;64.53;101568.97;5075964;28;45565;-79
2023/04/18 00:09:48;;;;;;;;;65.50;50.75;;;;;12.06;64.53;101572.44;5074854;28;45611;-81
2023/04/18 00:12:14;;;;;;;;;63.00;48.50;;;;;12.01;64.73;101570.09;5078507;28;46198;-83
2023/04/18 00:14:39;;;;;;;;;68.25;52.00;;;;;11.98;64.51;101569.44;5077064;28;45633;-80
2023/04/18 00:17:07;;;;;;;;;59.50;48.25;;;;;11.97;64.77;101565.97;5076459;28;45563;-80
2023/04/18 00:19:33;;;;;;;;;69.50;54.75;;;;;11.90;64.71;101559.41;5074929;28;45647;-82
2023/04/18 00:21:58;;;;;;;;;64.50;50.25;;;;;11.88;64.90;101560.41;5076236;28;45736;-85
2023/04/18 00:24:24;;;;;;;;;62.00;49.50;;;;;11.86;65.09;101567.56;5077895;28;45536;-78
2023/04/18 00:30:12;;;;;;;;;62.75;49.50;;;;;11.83;65.13;101578.25;5083453;28;45580;-78
2023/04/18 00:32:38;;;;;;;;;66.75;52.00;;;;;11.78;65.10;101570.66;5082207;28;46494;-78
2023/04/18 00:35:04;;;;;;;;;67.25;51.75;;;;;11.76;65.07;101567.28;5059202;28;45916;-79
2023/04/18 00:37:29;;;;;;;;;66.75;53.75;;;;;11.75;65.40;101563.81;5074829;28;45651;-80
2023/04/18 00:39:54;;;;;;;;;65.50;51.25;;;;;11.73;65.44;101564.81;5073180;28;46227;-82
2023/04/18 00:45:43;;;;;;;;;62.50;48.50;;;;;11.67;65.53;101552.03;5073853;28;45810;-79
2023/04/18 00:48:09;;;;;;;;;71.75;51.50;;;;;11.67;65.76;101562.53;5077146;28;45612;-81
2023/04/18 00:50:36;;;;;;;;;71.75;53.25;;;;;11.62;65.73;101552.31;5077974;28;46535;-84
2023/04/18 00:53:01;;;;;;;;;74.00;53.50;;;;;11.60;65.87;101548.97;5074245;28;45637;-81
2023/04/18 00:55:28;;;;;;;;;72.50;53.25;;;;;11.62;65.88;101554.09;5073311;28;45696;-82
2023/04/18 00:57:53;;;;;;;;;70.00;53.25;;;;;11.57;65.99;101548.28;5074528;28;45573;-79
2023/04/18 01:00:19;;;;;;;;;70.00;52.25;;;;;11.56;66.03;101549.22;5074992;28;45524;-80
2023/04/18 01:02:46;;;;;;;;;69.50;52.50;;;;;11.55;66.16;101544.94;5076478;28;45648;-88
2023/04/18 01:05:12;;;;;;;;;72.25;55.00;;;;;11.52;66.26;101545.94;5058690;28;45987;-80
2023/04/18 01:07:40;;;;;;;;;71.50;54.00;;;;;11.48;66.32;101543.59;5080468;28;45738;-79
2023/04/18 01:10:06;;;;;;;;;76.25;55.00;;;;;11.48;66.38;101546.22;5079328;28;46436;-86
2023/04/18 01:15:54;;;;;;;;;69.50;53.50;;;;;11.45;66.50;101535.88;5073813;27;45678;-83
2023/04/18 01:18:21;;;;;;;;;70.00;53.50;;;;;11.44;66.52;101537.69;5091282;27;45925;-80
2023/04/18 01:20:48;;;;;;;;;69.25;53.25;;;;;11.47;66.48;101532.25;5074855;28;45930;-83
2023/04/18 01:23:15;;;;;;;;;72.25;53.75;;;;;11.51;66.63;101536.38;5075687;28;45700;-82
2023/04/18 01:25:42;;;;;;;;;65.75;52.25;;;;;11.52;66.34;101535.44;5076314;28;45581;-79
2023/04/18 01:28:07;;;;;;;;;71.25;54.50;;;;;11.49;66.44;101529.53;5076658;28;45599;-81
2023/04/18 01:30:33;;;;;;;;;71.75;53.75;;;;;11.49;66.52;101519.06;5074357;28;47184;-84
2023/04/18 01:33:05;;;;;;;;;72.25;55.00;;;;;11.46;66.50;101516.59;5077141;28;46336;-83
2023/04/18 01:35:31;;;;;;;;;73.00;54.50;;;;;11.50;66.67;101518.94;5079462;28;45510;-83
2023/04/18 01:37:57;;;;;;;;;74.25;56.00;;;;;11.51;66.46;101528.50;5078303;28;45570;-80
2023/04/18 01:40:23;;;;;;;;;75.25;54.00;;;;;11.51;66.61;101522.41;5077347;28;46611;-81
2023/04/18 01:46:10;;;;;;;;;72.00;54.50;;;;;11.51;66.47;101514.53;5076202;28;46256;-84
2023/04/18 01:48:36;;;;;;;;;74.25;56.00;;;;;11.52;66.66;101527.56;5076548;28;45572;-81
2023/04/18 01:51:01;;;;;;;;;65.75;53.25;;;;;11.49;66.57;101522.53;5057667;28;48231;-82
2023/04/18 01:53:27;;;;;;;;;69.50;54.50;;;;;11.50;66.59;101521.56;5076326;28;45755;-83
2023/04/18 01:55:53;;;;;;;;;67.75;53.25;;;;;11.49;66.57;101519.91;5075928;28;45886;-84
2023/04/18 01:58:22;;;;;;;;;75.25;56.75;;;;;11.49;66.43;101519.91;5077388;28;45902;-85
2023/04/18 02:00:52;;;;;;;;;72.75;55.00;;;;;11.42;66.61;101520.34;5077583;28;45671;-85
2023/04/18 02:03:18;;;;;;;;;76.75;56.25;;;;;11.42;66.58;101520.34;5077073;28;46215;-83
2023/04/18 02:05:44;;;;;;;;;74.00;55.25;;;;;11.41;66.69;101519.50;5077006;28;45574;-83
2023/04/18 02:08:10;;;;;;;;;71.00;56.00;;;;;11.37;66.55;101523.25;5077814;28;46012;-85
2023/04/18 02:10:36;;;;;;;;;73.00;54.00;;;;;11.33;66.85;101519.13;5078078;28;46175;-80
2023/04/18 02:16:23;;;;;;;;;72.75;56.50;;;;;11.33;66.79;101513.88;5077703;28;45781;-85
2023/04/18 02:18:51;;;;;;;;;72.75;55.75;;;;;11.30;66.80;101506.19;5077234;28;45639;-86
2023/04/18 02:21:17;;;;;;;;;73.50;55.00;;;;;11.28;66.83;101513.31;5077624;28;45802;-84
2023/04/18 02:23:42;;;;;;;;;66.00;51.75;;;;;11.24;66.90;101507.38;5076567;28;45804;-83
2023/04/18 02:26:07;;;;;;;;;78.50;58.00;;;;;11.22;66.81;101505.81;5075900;28;45974;-85
2023/04/18 02:28:33;;;;;;;;;74.75;57.25;;;;;11.18;66.96;101509.50;5076929;28;45841;-83
2023/04/18 02:30:59;;;;;;;;;77.50;56.75;;;;;11.21;66.84;101496.25;5077219;28;45525;-83
2023/04/18 02:33:24;;;;;;;;;69.50;50.25;;;;;11.21;66.96;101507.56;5076586;28;45626;-87
2023/04/18 02:35:50;;;;;;;;;68.00;50.25;;;;;11.13;66.95;101499.31;5075799;28;45589;-85
2023/04/18 02:38:15;;;;;;;;;70.00;53.50;;;;;11.09;66.97;101494.34;5076406;28;45571;-88
2023/04/18 02:40:40;;;;;;;;;69.25;54.75;;;;;11.12;66.79;101491.56;5078351;28;45617;-87
2023/04/18 02:46:28;;;;;;;;;71.00;54.75;;;;;11.10;67.03;101496.88;5075159;28;45672;-84
2023/04/18 02:48:54;;;;;;;;;70.50;53.25;;;;;11.09;67.02;101487.31;5078212;28;45501;-78
2023/04/18 02:51:19;;;;;;;;;68.50;53.25;;;;;11.07;66.92;101485.69;5078462;28;46407;-81
2023/04/18 02:53:45;;;;;;;;;73.75;57.00;;;;;11.06;66.69;101494.53;5082586;28;45592;-87
2023/04/18 02:56:15;;;;;;;;;74.00;56.75;;;;;11.03;66.71;101486.81;5082114;28;45797;-85
2023/04/18 03:02:03;;;;;;;;;69.25;55.50;;;;;11.01;66.83;101480.84;5079455;28;45566;-82
2023/04/18 03:04:28;;;;;;;;;68.00;49.25;;;;;10.98;66.70;101481.00;5080281;28;45690;-81
2023/04/18 03:06:54;;;;;;;;;64.00;53.25;;;;;10.97;66.83;101484.56;5080411;28;45529;-81
2023/04/18 03:09:20;;;;;;;;;74.50;55.50;;;;;10.97;66.84;101492.44;5078734;28;45658;-80
2023/04/18 03:11:46;;;;;;;;;69.25;55.50;;;;;10.93;66.87;101481.28;5082284;28;45751;-79
2023/04/18 03:14:11;;;;;;;;;74.25;54.50;;;;;10.90;66.76;101481.47;5080095;28;45621;-81
2023/04/18 03:16:37;;;;;;;;;73.00;55.50;;;;;10.92;66.77;101484.84;5079942;28;45547;-78
2023/04/18 03:19:02;;;;;;;;;74.50;54.25;;;;;10.91;66.85;101483.97;5080241;28;45792;-85
2023/04/18 03:21:27;;;;;;;;;71.50;54.75;;;;;10.90;66.69;101487.53;5078066;28;46865;-83
2023/04/18 03:23:53;;;;;;;;;73.50;56.00;;;;;10.89;66.95;101475.38;5075314;28;45513;-79
2023/04/18 03:26:19;;;;;;;;;71.50;54.25;;;;;10.86;67.08;101486.03;5075365;28;45585;-82
2023/04/18 03:32:06;;;;;;;;;70.75;55.00;;;;;10.81;66.95;101488.09;5076188;28;45729;-80
2023/04/18 03:34:32;;;;;;;;;73.00;57.50;;;;;10.79;66.98;101489.97;5075439;28;46349;-80
2023/04/18 03:36:57;;;;;;;;;71.00;54.00;;;;;10.76;66.83;101484.03;5075968;28;45761;-79
2023/04/18 03:39:23;;;;;;;;;68.50;54.50;;;;;10.76;66.91;101482.25;5077701;28;45771;-80
2023/04/18 03:41:48;;;;;;;;;72.00;55.75;;;;;10.77;67.27;101476.09;5075099;28;45647;-76
2023/04/18 03:44:14;;;;;;;;;73.00;55.00;;;;;10.74;67.23;101475.44;5074530;28;46317;-83
2023/04/18 03:46:40;;;;;;;;;70.50;53.25;;;;;10.77;67.31;101481.34;5074606;28;45673;-83
2023/04/18 03:49:05;;;;;;;;;72.00;56.75;;;;;10.75;67.25;101487.59;5077740;28;45597;-78
2023/04/18 03:51:33;;;;;;;;;76.50;58.75;;;;;10.74;67.23;101485.91;5076727;28;45656;-76
2023/04/18 03:53:58;;;;;;;;;73.50;54.00;;;;;10.70;67.52;101474.75;5076616;28;46095;-76
2023/04/18 03:56:24;;;;;;;;;70.50;57.00;;;;;10.71;67.48;101489.53;5076521;28;45616;-78
2023/04/18 04:02:11;;;;;;;;;74.75;57.00;;;;;10.68;67.53;101475.78;5074990;28;46025;-77
2023/04/18 04:04:37;;;;;;;;;70.25;55.75;;;;;10.65;67.54;101475.94;5073851;28;46243;-76
2023/04/18 04:07:02;;;;;;;;;79.00;59.00;;;;;10.65;67.91;101475.94;5056275;28;45704;-80
2023/04/18 04:09:27;;;;;;;;;73.75;52.50;;;;;10.61;67.72;101477.06;5075137;28;45735;-80
2023/04/18 04:11:53;;;;;;;;;75.50;57.50;;;;;10.55;68.04;101474.78;5074528;28;45623;-80
2023/04/18 04:17:40;;;;;;;;;75.50;58.50;;;;;10.52;68.14;101467.97;5071920;28;46062;-80
2023/04/18 04:20:06;;;;;;;;;74.25;54.50;;;;;10.51;68.33;101463.66;5076175;28;45823;-79
2023/04/18 04:22:33;;;;;;;;;70.00;55.75;;;;;10.52;68.13;101466.19;5076829;28;45624;-83
2023/04/18 04:24:59;;;;;;;;;66.75;52.50;;;;;10.49;68.39;101471.59;5076262;28;46166;-84
2023/04/18 04:27:26;;;;;;;;;77.00;59.50;;;;;10.48;68.52;101469.03;5076083;28;45861;-87
2023/04/18 04:29:52;;;;;;;;;71.00;53.50;;;;;10.46;68.71;101465.69;5074706;28;45722;-80
2023/04/18 04:32:19;;;;;;;;;81.25;60.50;;;;;10.45;68.65;101462.22;5071988;28;48304;-84
2023/04/18 04:34:45;;;;;;;;;75.50;56.00;;;;;10.47;69.00;101462.16;5072897;28;45720;-81
2023/04/18 04:37:12;;;;;;;;;74.25;57.75;;;;;10.45;68.76;101464.00;5075145;28;45686;-80
2023/04/18 04:39:38;;;;;;;;;73.75;55.75;;;;;10.46;68.97;101463.91;5077690;28;45861;-80
2023/04/18 04:42:04;;;;;;;;;73.00;56.00;;;;;10.41;68.86;101468.56;5083199;28;45617;-77
2023/04/18 04:47:51;;;;;;;;;76.75;56.25;;;;;10.42;69.23;101459.75;5079443;28;45560;-79
2023/04/18 04:50:17;;;;;;;;;76.00;57.75;;;;;10.42;69.29;101465.00;5079166;28;45511;-83
2023/04/18 04:52:43;;;;;;;;;67.00;52.75;;;;;10.40;69.44;101463.41;5073255;28;46841;-80
2023/04/18 04:55:09;;;;;;;;;77.25;57.75;;;;;10.39;69.40;101462.56;5071955;28;45832;-77
2023/04/18 04:57:35;;;;;;;;;75.75;55.50;;;;;10.38;69.51;101467.88;5072586;28;45800;-76
2023/04/18 05:00:00;;;;;;;;;77.75;58.75;;;;;10.37;69.51;101472.28;5072691;28;45812;-75
2023/04/18 05:02:25;;;;;;;;;77.00;57.75;;;;;10.35;69.50;101470.69;5072213;28;45563;-76
2023/04/18 05:04:51;;;;;;;;;75.50;57.50;;;;;10.33;69.91;101472.53;5072052;28;45785;-75
2023/04/18 05:07:16;;;;;;;;;78.50;58.25;;;;;10.31;69.91;101477.03;5073091;28;45659;-73
2023/04/18 05:09:42;;;;;;;;;73.00;56.50;;;;;10.27;69.91;101462.41;5075844;28;45919;-77
2023/04/18 05:12:07;;;;;;;;;71.00;56.25;;;;;10.27;69.85;101478.97;5075460;28;45728;-76
2023/04/18 05:17:54;;;;;;;;;72.25;56.00;;;;;10.24;70.33;101481.75;5076454;28;45888;-78
2023/04/18 05:20:20;;;;;;;;;76.75;56.00;;;;;10.22;70.68;101462.66;5078544;28;45624;-77
2023/04/18 05:22:45;;;;;;;;;73.75;56.50;;;;;10.24;70.19;101468.66;5075916;28;45883;-76
2023/04/18 05:25:11;;;;;;;;;78.00;59.00;;;;;10.25;70.51;101474.75;5075520;28;45790;-78
2023/04/18 05:27:37;;;;;;;;;82.50;61.75;;;;;10.23;70.49;101464.34;5074910;28;45841;-74
2023/04/18 05:33:24;;;;;;;;;74.00;56.00;;;;;10.24;70.56;101471.28;5075461;28;46045;-78
2023/04/18 05:35:49;;;;;;;;;70.50;55.75;;;;;10.24;70.33;101471.28;5075163;28;45904;-78
2023/04/18 05:38:15;;;;;;;;;69.75;51.75;;;;;10.25;70.50;101480.84;5075986;28;45810;-78
2023/04/18 05:40:41;;;;;;;;;72.50;57.00;;;;;10.25;70.55;101478.22;5075749;28;45859;-80
2023/04/18 05:43:06;;;;;;;;;78.00;56.25;;;;;10.24;70.17;101478.28;5075172;28;46152;-78
2023/04/18 05:45:31;;;;;;;;;70.25;55.25;;;;;10.30;70.44;101483.19;5074881;28;45754;-77
2023/04/18 05:47:57;;;;;;;;;72.75;56.25;;;;;10.30;70.17;101476.19;5075701;28;45626;-78
2023/04/18 05:50:22;;;;;;;;;76.00;57.25;;;;;10.33;70.13;101477.78;5075534;28;45736;-77
2023/04/18 05:52:48;;;;;;;;;72.75;58.00;;;;;10.35;70.53;101482.00;5075091;28;45607;-78
2023/04/18 05:55:13;;;;;;;;;76.25;57.75;;;;;10.37;69.87;101484.53;5074985;28;46170;-77
2023/04/18 05:57:39;;;;;;;;;75.00;58.00;;;;;10.34;69.92;101472.47;5075446;28;45640;-78
2023/04/18 06:03:26;;;;;;;;;71.25;55.00;;;;;10.41;69.81;101486.06;5074881;28;46037;-77
2023/04/18 06:05:51;;;;;;;;;70.75;53.25;;;;;10.42;69.88;101479.88;5073352;28;47063;-77
2023/04/18 06:08:17;;;;;;;;;78.25;56.00;;;;;10.40;69.87;101471.28;5075024;28;45663;-77
2023/04/18 06:10:42;;;;;;;;;69.25;53.00;;;;;10.44;69.59;101488.50;5075322;28;45753;-77
2023/04/18 06:13:07;;;;;;;;;77.75;57.75;;;;;10.43;69.54;101478.94;5073181;28;46712;-78
2023/04/18 06:18:54;;;;;;;;;73.50;55.25;;;;;10.40;69.50;101492.22;5071823;28;45914;-77
2023/04/18 06:21:20;;;;;;;;;77.75;56.50;;;;;10.39;69.65;101482.66;5075199;28;45713;-77
2023/04/18 06:23:46;;;;;;;;;70.75;54.25;;;;;10.39;69.55;101487.91;5074639;28;46338;-78
2023/04/18 06:26:12;;;;;;;;;78.00;57.00;;;;;10.39;69.77;101490.53;5075207;28;45883;-78
2023/04/18 06:28:37;;;;;;;;;71.50;54.25;;;;;10.36;69.42;101501.19;5075085;28;45824;-76
2023/04/18 06:31:03;;;;;;;;;67.00;54.00;;;;;10.28;69.73;101482.44;5075005;28;45837;-75
2023/04/18 06:33:28;;;;;;;;;66.75;52.00;;;;;10.26;69.89;101482.50;5074509;28;46696;-75
2023/04/18 06:35:53;;;;;;;;;77.00;58.25;;;;;10.33;69.92;101488.25;5074443;28;46382;-75
2023/04/18 06:38:19;;;;;;;;;76.25;56.00;;;;;10.30;69.79;101493.66;5074968;28;45600;-78
2023/04/18 06:40:44;;;;;;;;;77.25;58.50;;;;;10.28;69.72;101493.75;5075117;28;45820;-75
2023/04/18 06:43:09;;;;;;;;;73.50;58.25;;;;;10.36;69.78;101490.72;5075138;28;46589;-76
2023/04/18 06:48:57;;;;;;;;;72.50;55.75;;;;;10.43;69.61;101485.03;5076152;28;45640;-75
2023/04/18 06:51:23;;;;;;;;;71.25;54.00;;;;;10.46;69.44;101476.16;5075795;28;45669;-76
2023/04/18 06:53:51;;;;;;;;;73.25;55.75;;;;;10.48;69.37;101482.16;5074136;28;46382;-77
2023/04/18 06:56:18;;;;;;;;;68.75;55.25;;;;;10.51;69.47;101487.22;5074359;28;45511;-76
2023/04/18 06:58:43;;;;;;;;;73.25;56.50;;;;;10.49;69.58;101483.84;5074422;28;45842;-74
2023/04/18 07:01:08;;;;;;;;;79.50;58.75;;;;;10.47;69.38;101490.97;5074588;28;45627;-75
2023/04/18 07:03:34;;;;;;;;;58.00;41.25;;;;;10.43;69.45;101484.19;5074093;28;46477;-78
2023/04/18 07:05:59;;;;;;;;;74.00;57.75;;;;;10.41;69.51;101484.28;5074157;28;45739;-77
2023/04/18 07:08:25;;;;;;;;;76.50;55.50;;;;;10.42;69.65;101477.25;5074348;28;45997;-78
2023/04/18 07:10:50;;;;;;;;;70.50;55.00;;;;;10.44;69.68;101464.91;5074450;28;45823;-77
2023/04/18 07:13:15;;;;;;;;;69.75;54.50;;;;;10.53;69.46;101477.50;5074187;28;46546;-78
2023/04/18 07:19:04;;;;;;;;;55.50;41.50;;;;;10.61;69.25;101484.91;5073543;27;45789;-77
2023/04/18 07:21:29;;;;;;;;;71.50;57.00;;;;;10.62;69.29;101476.13;5074406;28;45699;-76
2023/04/18 07:23:55;;;;;;;;;82.50;60.00;;;;;10.63;69.45;101483.06;5073410;28;46369;-77
2023/04/18 07:26:20;;;;;;;;;76.75;55.50;;;;;10.65;69.30;101483.81;5074224;28;45936;-75
2023/04/18 07:28:46;;;;;;;;;71.00;55.00;;;;;10.67;69.20;101482.81;5074025;28;45778;-75
2023/04/18 07:34:34;;;;;;;;;73.00;54.00;;;;;10.73;69.04;101477.22;5073298;28;46193;-78
2023/04/18 07:37:00;;;;;;;;;75.25;56.50;;;;;10.75;68.79;101477.09;5073928;28;45849;-77
2023/04/18 07:39:25;;;;;;;;;75.75;58.00;;;;;10.79;68.84;101483.88;5074030;28;45659;-77
2023/04/18 07:41:51;;;;;;;;;76.75;57.75;;;;;10.82;68.65;101470.59;5073848;28;45776;-77
2023/04/18 07:44:17;;;;;;;;;77.00;56.50;;;;;10.90;68.83;101473.63;5073406;28;45700;-76
2023/04/18 07:46:42;;;;;;;;;76.75;59.00;;;;;10.96;68.63;101475.03;5073732;28;46047;-77
2023/04/18 07:49:07;;;;;;;;;76.00;56.25;;;;;11.00;68.38;101468.66;5073875;28;45618;-78
2023/04/18 07:51:33;;;;;;;;;75.50;57.25;;;;;11.04;68.14;101478.88;5074147;28;45849;-79
2023/04/18 07:53:59;;;;;;;;;70.25;54.25;;;;;11.06;68.16;101476.19;5073191;28;45659;-78
2023/04/18 07:56:26;;;;;;;;;72.50;56.00;;;;;11.04;68.02;101480.66;5055126;28;46967;-75
2023/04/18 07:58:52;;;;;;;;;76.75;58.25;;;;;11.03;67.83;101465.84;5073481;28;45520;-77
2023/04/18 08:04:39;;;;;;;;;69.25;54.75;;;;;11.05;67.91;101464.00;5072727;28;45599;-75
2023/04/18 08:07:04;;;;;;;;;69.50;54.75;;;;;11.08;67.44;101461.19;5071843;28;46043;-76
2023/04/18 08:09:30;;;;;;;;;72.25;56.50;;;;;11.08;67.40;101451.53;5071806;28;46135;-75
2023/04/18 08:11:56;;;;;;;;;76.75;55.25;;;;;11.10;66.98;101462.78;5073599;28;45680;-76
2023/04/18 08:14:22;;;;;;;;;75.75;57.25;;;;;11.10;67.19;101464.56;5072404;28;46426;-77
2023/04/18 08:16:47;;;;;;;;;72.00;54.25;;;;;11.12;67.20;101470.56;5073008;28;45619;-74
2023/04/18 08:19:12;;;;;;;;;59.50;44.50;;;;;11.12;66.63;101468.75;5073001;28;45542;-78
2023/04/18 08:21:38;;;;;;;;;72.00;54.75;;;;;11.13;66.91;101459.97;5071908;28;45968;-78
2023/04/18 08:24:03;;;;;;;;;76.75;55.25;;;;;11.14;66.93;101459.03;5072546;28;46261;-75
2023/04/18 08:26:29;;;;;;;;;68.75;53.00;;;;;11.17;66.77;101448.38;5073196;28;46449;-75
2023/04/18 08:28:55;;;;;;;;;77.50;54.50;;;;;11.19;66.50;101446.50;5073156;28;45626;-77
2023/04/18 08:34:42;;;;;;;;;63.50;50.25;;;;;11.29;66.69;101454.63;5072358;28;46053;-77
2023/04/18 08:37:07;;;;;;;;;68.50;53.25;;;;;11.32;66.17;101449.22;5073213;28;45662;-77
2023/04/18 08:39:34;;;;;;;;;72.75;55.25;;;;;11.34;66.36;101442.94;5073161;28;45561;-77
2023/04/18 08:42:00;;;;;;;;;68.00;54.00;;;;;11.38;66.14;101443.59;5072689;28;45609;-76
2023/04/18 08:44:29;;;;;;;;;65.75;51.75;;;;;11.41;65.79;101446.03;5087860;27;47439;-76
2023/04/18 08:50:17;;;;;;;;;70.00;52.50;;;;;11.51;65.59;101441.91;5072982;28;45612;-77
2023/04/18 08:52:48;;;;;;;;;71.75;54.00;;;;;11.57;65.44;101440.69;5073259;28;45804;-77
2023/04/18 08:55:15;;;;;;;;;64.00;51.00;;;;;11.63;65.21;101442.94;5074553;28;46664;-77
2023/04/18 08:57:40;;;;;;;;;62.00;52.00;;;;;11.69;65.15;101429.44;5076294;28;46517;-77
2023/04/18 09:00:09;;;;;;;;;67.50;53.25;;;;;11.77;65.09;101430.66;5074268;28;45928;-77
2023/04/18 09:02:43;;;;;;;;;71.00;52.00;;;;;11.82;64.77;101434.78;5073376;28;45594;-76
2023/04/18 09:05:14;;;;;;;;;68.75;49.00;;;;;11.88;64.43;101429.97;5072797;28;46225;-76
2023/04/18 09:07:40;;;;;;;;;65.50;52.25;;;;;11.93;64.28;101429.72;5072446;28;46074;-75
2023/04/18 09:10:06;;;;;;;;;67.50;51.50;;;;;11.95;64.11;101425.19;5071109;28;45892;-77
2023/04/18 09:12:33;;;;;;;;;64.00;51.50;;;;;12.04;63.93;101437.72;5072517;28;45661;-76
2023/04/18 09:15:14;;;;;;;;;66.25;50.00;;;;;12.07;63.55;101434.91;5072097;28;46723;-78
2023/04/18 09:17:48;;;;;;;;;67.25;52.75;;;;;12.07;63.48;101427.88;5072506;28;46375;-77
2023/04/18 09:20:36;;;;;;;;;69.75;53.25;;;;;12.08;63.38;101416.44;5072016;28;45843;-77
2023/04/18 09:23:23;;;;;;;;;71.75;51.75;;;;;12.12;63.30;101410.03;5070131;28;45689;-76
2023/04/18 09:25:51;;;;;;;;;54.75;43.75;;;;;12.14;63.25;101416.06;5071740;28;46688;-75
2023/04/18 09:28:26;;;;;;;;;69.00;53.00;;;;;12.23;63.33;101414.59;5072433;28;46080;-77
2023/04/18 09:30:53;;;;;;;;;72.25;54.00;;;;;12.28;63.28;101415.13;5071965;28;45645;-76
2023/04/18 09:33:32;;;;;;;;;63.75;48.50;;;;;12.36;62.92;101420.72;5072087;28;45986;-75
2023/04/18 09:36:27;;;;;;;;;63.00;51.25;;;;;12.40;62.35;101403.84;5071470;28;45596;-75
2023/04/18 09:38:53;;;;;;;;;67.25;51.00;;;;;12.42;61.82;101409.81;5071934;28;46143;-75
2023/04/18 09:41:21;;;;;;;;;65.00;49.25;;;;;12.45;62.18;101404.38;5072239;28;45647;-75
2023/04/18 09:43:47;;;;;;;;;63.00;50.00;;;;;12.49;61.83;101403.22;5071797;28;45709;-74
2023/04/18 09:46:13;;;;;;;;;61.00;48.00;;;;;12.52;61.69;101397.75;5071840;28;45589;-76
2023/04/18 09:48:40;;;;;;;;;63.75;50.75;;;;;12.58;61.68;101404.38;5087531;27;47169;-76
2023/04/18 09:51:08;;;;;;;;;60.25;46.50;;;;;12.63;61.60;101396.22;5072280;28;45826;-76
2023/04/18 09:53:43;;;;;;;;;63.75;50.25;;;;;12.69;61.10;101395.78;5072014;28;45817;-77
2023/04/18 09:56:17;;;;;;;;;66.00;51.25;;;;;12.72;60.92;101398.22;5075519;28;46641;-77
2023/04/18 09:58:46;;;;;;;;;61.75;47.00;;;;;12.72;61.05;101388.53;5075250;28;46503;-74
2023/04/18 10:01:12;;;;;;;;;62.25;49.25;;;;;12.73;60.82;101376.25;5075339;28;45605;-74
2023/04/18 10:03:45;;;;;;;;;60.75;48.00;;;;;12.76;61.04;101387.38;5075147;28;45766;-75
2023/04/18 10:06:15;;;;;;;;;61.00;48.25;;;;;12.82;60.91;101378.22;5056783;28;47437;-78
2023/04/18 10:08:41;;;;;;;;;68.25;51.25;;;;;12.86;60.77;101374.44;5075361;28;46043;-76
2023/04/18 10:11:06;;;;;;;;;66.00;51.50;;;;;12.92;60.89;101369.63;5075204;28;45727;-75
2023/04/18 10:13:34;;;;;;;;;62.25;51.00;;;;;12.99;60.42;101370.88;5074654;28;45647;-74
2023/04/18 10:16:01;;;;;;;;;64.25;50.75;;;;;13.08;60.06;101361.50;5075054;28;45596;-74
2023/04/18 10:18:26;;;;;;;;;65.75;49.75;;;;;13.18;59.33;101367.00;5074813;28;45597;-75
2023/04/18 10:21:00;;;;;;;;;62.50;49.00;;;;;13.23;59.24;101364.88;5073482;28;45725;-75
2023/04/18 10:23:38;;;;;;;;;65.75;51.00;;;;;13.31;59.44;101365.19;5074647;28;45686;-78
2023/04/18 10:26:05;;;;;;;;;61.75;48.00;;;;;13.38;59.68;101364.66;5074970;28;45694;-77
2023/04/18 10:28:51;;;;;;;;;61.50;50.75;;;;;13.42;59.09;101354.75;5075050;28;46427;-78
2023/04/18 10:31:17;;;;;;;;;58.75;47.00;;;;;13.50;58.37;101344.50;5011949;28;45671;-78
2023/04/18 10:33:48;;;;;;;;;61.75;49.25;;;;;13.54;58.25;101345.16;5011782;28;45821;-78
2023/04/18 10:36:15;;;;;;;;;64.75;50.00;;;;;13.56;58.05;101336.16;5012075;28;46584;-77
2023/04/18 10:38:49;;;;;;;;;56.75;46.25;;;;;13.59;58.22;101343.03;5012026;28;46163;-75
2023/04/18 10:41:31;;;;;;;;;56.75;45.00;;;;;13.66;58.08;101337.19;5012287;28;45672;-77
2023/04/18 10:44:05;;;;;;;;;55.75;44.00;;;;;13.76;57.63;101338.22;5011679;28;45620;-77
2023/04/18 10:46:35;;;;;;;;;59.25;47.25;;;;;13.79;57.32;101342.41;5011822;28;46785;-78
2023/04/18 10:49:23;;;;;;;;;61.50;49.00;;;;;13.81;57.61;101315.03;5012039;28;46429;-75
2023/04/18 10:51:51;;;;;;;;;60.50;46.25;;;;;13.83;56.88;101321.00;5011897;28;45660;-75
2023/04/18 10:54:29;;;;;;;;;59.50;45.00;;;;;13.86;57.38;101325.22;5011667;28;45695;-75
2023/04/18 10:56:57;;;;;;;;;64.50;47.00;;;;;13.91;57.01;101309.91;5011646;28;47271;-75
2023/04/18 10:59:24;;;;;;;;;63.25;51.00;;;;;14.01;57.24;101320.59;5011827;28;46529;-76
2023/04/18 11:01:55;;;;;;;;;61.75;49.25;;;;;14.08;56.80;101317.41;5011742;28;45744;-77
2023/04/18 11:04:23;;;;;;;;;60.25;49.00;;;;;14.14;56.60;101311.66;5011332;28;45906;-76
2023/04/18 11:06:56;;;;;;;;;60.75;44.25;;;;;14.19;55.93;101316.63;5011206;28;45801;-76
2023/04/18 11:09:22;;;;;;;;;58.75;47.00;;;;;14.22;56.13;101321.66;5067229;28;46273;-75
2023/04/18 11:12:05;;;;;;;;;67.00;49.50;;;;;14.25;56.10;101306.44;5074447;28;45871;-76
2023/04/18 11:14:51;;;;;;;;;56.75;46.50;;;;;14.31;55.91;101318.31;5073973;28;45807;-77
2023/04/18 11:17:16;;;;;;;;;52.00;41.25;;;;;14.36;55.65;101299.53;5073461;28;45719;-77
2023/04/18 11:19:42;;;;;;;;;59.75;47.50;;;;;14.42;55.49;101296.44;5073735;28;45907;-76
2023/04/18 11:22:07;;;;;;;;;60.75;45.75;;;;;14.52;55.24;101298.25;5074265;28;45812;-79
2023/04/18 11:24:33;;;;;;;;;54.25;44.25;;;;;14.57;55.06;101298.78;5074036;28;45644;-76
2023/04/18 11:26:59;;;;;;;;;58.00;45.25;;;;;14.65;54.38;101292.88;5073951;28;46641;-76
2023/04/18 11:29:24;;;;;;;;;50.75;42.50;;;;;14.68;53.63;101292.66;5073870;28;45587;-78
2023/04/18 11:31:53;;;;;;;;;52.00;41.00;;;;;14.66;52.45;101284.03;5073703;28;45598;-78
2023/04/18 11:34:18;;;;;;;;;49.00;36.75;;;;;14.75;51.92;101277.19;5073698;28;45706;-78
2023/04/18 11:36:51;;;;;;;;;44.00;36.75;;;;;14.79;51.22;101297.13;5073649;28;46797;-75
2023/04/18 11:39:17;;;;;;;;;42.50;35.75;;;;;14.83;51.06;101283.56;5073959;28;45732;-76
2023/04/18 11:41:49;;;;;;;;;47.75;36.25;;;;;14.92;50.91;101282.84;5073828;28;45628;-76
2023/04/18 11:44:15;;;;;;;;;47.75;37.00;;;;;15.03;50.84;101276.72;5073360;28;45602;-76
2023/04/18 11:46:41;;;;;;;;;46.25;38.75;;;;;15.09;50.29;101284.16;5073502;28;47095;-76
2023/04/18 11:49:06;;;;;;;;;48.00;39.25;;;;;15.11;50.40;101282.25;5073569;28;45676;-76
2023/04/18 11:51:37;;;;;;;;;45.25;36.50;;;;;15.11;50.02;101287.50;5073759;28;45706;-76
2023/04/18 11:54:03;;;;;;;;;36.75;34.00;;;;;15.13;49.69;101280.28;5073372;28;45805;-79
2023/04/18 11:56:28;;;;;;;;;40.25;36.00;;;;;15.13;49.66;101275.84;5073527;28;46306;-74
2023/04/18 11:58:54;;;;;;;;;39.75;35.75;;;;;15.18;49.43;101275.50;5073679;28;46019;-76
2023/04/18 12:01:24;;;;;;;;;45.50;37.00;;;;;15.22;49.21;101268.19;5073594;28;46032;-74
2023/04/18 12:04:19;;;;;;;;;43.75;37.50;;;;;15.31;49.79;101267.44;5073077;28;45797;-76
2023/04/18 12:06:45;;;;;;;;;44.00;38.50;;;;;15.36;49.33;101266.09;5010521;28;45917;-78
2023/04/18 12:09:17;;;;;;;;;48.00;38.00;;;;;15.40;48.91;101264.88;5010594;28;45692;-74
2023/04/18 12:11:43;;;;;;;;;40.75;36.50;;;;;15.40;48.88;101267.53;5010800;28;45932;-76
2023/04/18 12:14:20;;;;;;;;;47.50;37.00;;;;;15.45;49.07;101270.63;5010368;28;45646;-77
2023/04/18 12:16:48;;;;;;;;;45.75;38.00;;;;;15.49;49.06;101265.97;5009337;28;46842;-79
2023/04/18 12:19:13;;;;;;;;;44.75;37.00;;;;;15.54;49.00;101269.09;4993271;28;47887;-73